Time;durP1;ratioP1;P1;durP2;ratioP2;P2;SDS_P1;SDS_P2;PMS_P1;PMS_P2;Temp;Humidity;BMP_temperature;BMP_pressure;BME280_temperature;BME280_humidity;BME280_pressure;Samples;Min_cycle;Max_cycle;Signal;HPM_P1;HPM_P2
2023/08/15 00:02:16;;;;;;;18.17;3.50;;;21.20;99.90;;;;;;7283542;19;20191;-74
2023/08/15 00:04:42;;;;;;;12.03;3.30;;;21.10;99.90;;;;;;7300466;19;20240;-75
2023/08/15 00:07:08;;;;;;;13.27;3.33;;;21.10;99.90;;;;;;7278646;19;20180;-75
2023/08/15 00:09:34;;;;;;;16.13;3.60;;;21.00;99.90;;;;;;7279050;19;20196;-74
2023/08/15 00:11:59;;;;;;;14.30;3.80;;;20.90;99.90;;;;;;7279379;19;20198;-75
2023/08/15 00:14:26;;;;;;;11.50;4.13;;;21.00;99.90;;;;;;7278356;19;20211;-75
2023/08/15 00:16:52;;;;;;;17.07;4.60;;;21.00;99.90;;;;;;7279451;19;20292;-74
2023/08/15 00:19:18;;;;;;;14.93;3.87;;;21.10;99.90;;;;;;7278577;19;20192;-75
2023/08/15 00:21:43;;;;;;;14.10;3.17;;;21.10;99.90;;;;;;7299701;19;20576;-75
2023/08/15 00:24:09;;;;;;;16.60;4.03;;;21.10;99.90;;;;;;7278485;19;20577;-75
2023/08/15 00:26:35;;;;;;;13.20;3.67;;;21.00;99.90;;;;;;7277827;19;20205;-75
2023/08/15 00:29:01;;;;;;;17.37;3.40;;;20.90;99.90;;;;;;7276902;19;20215;-75
2023/08/15 00:31:27;;;;;;;18.77;4.30;;;20.70;99.90;;;;;;7281539;19;20210;-75
2023/08/15 00:33:53;;;;;;;14.30;3.43;;;20.50;99.90;;;;;;7284976;19;20180;-74
2023/08/15 00:36:20;;;;;;;15.17;3.70;;;20.40;99.90;;;;;;7280045;19;20742;-75
2023/08/15 00:38:45;;;;;;;16.57;3.63;;;20.40;99.90;;;;;;7301071;19;20185;-75
2023/08/15 00:41:11;;;;;;;12.77;3.90;;;20.30;99.90;;;;;;7297618;19;20299;-76
2023/08/15 00:43:37;;;;;;;14.30;4.10;;;20.30;99.90;;;;;;7282542;19;20953;-75
2023/08/15 00:46:06;;;;;;;15.67;3.70;;;20.30;99.90;;;;;;7284768;19;20774;-75
2023/08/15 00:48:33;;;;;;;13.50;3.33;;;20.30;99.90;;;;;;7281386;19;20292;-76
2023/08/15 00:51:00;;;;;;;13.40;3.90;;;20.30;99.90;;;;;;7283338;19;20190;-76
2023/08/15 00:53:29;;;;;;;15.07;3.53;;;20.40;99.90;;;;;;7285206;19;20285;-76
2023/08/15 00:55:57;;;;;;;15.63;3.77;;;20.40;99.90;;;;;;7284003;19;20244;-76
2023/08/15 00:58:24;;;;;;;14.93;3.80;;;20.50;99.90;;;;;;7283822;19;20192;-75
2023/08/15 01:00:53;;;;;;;20.17;3.60;;;20.60;99.90;;;;;;7282113;19;20186;-75
2023/08/15 01:03:19;;;;;;;16.83;3.37;;;20.60;99.90;;;;;;7282529;19;20203;-75
2023/08/15 01:05:46;;;;;;;15.50;4.00;;;20.70;99.90;;;;;;7303181;19;20187;-75
2023/08/15 01:08:12;;;;;;;14.97;4.00;;;20.70;99.90;;;;;;7306732;19;20904;-75
2023/08/15 01:10:40;;;;;;;13.03;3.60;;;20.60;99.90;;;;;;7282956;19;20188;-75
2023/08/15 01:13:24;;;;;;;16.07;3.70;;;20.70;99.90;;;;;;7283959;19;20246;-74
2023/08/15 01:15:52;;;;;;;15.93;3.50;;;20.60;99.90;;;;;;7262544;19;20214;-75
2023/08/15 01:18:30;;;;;;;18.27;4.13;;;20.60;99.90;;;;;;7283172;19;20194;-75
2023/08/15 01:20:56;;;;;;;13.60;3.30;;;20.60;99.90;;;;;;7281858;19;20247;-75
2023/08/15 01:23:36;;;;;;;20.07;4.00;;;20.60;99.90;;;;;;7283123;19;20185;-74
2023/08/15 01:26:03;;;;;;;15.03;4.00;;;20.60;99.90;;;;;;7283444;19;20504;-75
2023/08/15 01:28:29;;;;;;;14.57;3.77;;;20.60;99.90;;;;;;7282213;19;20196;-75
2023/08/15 01:31:30;;;;;;;11.20;3.47;;;20.60;99.90;;;;;;7282041;19;20207;-75
2023/08/15 01:34:14;;;;;;;15.30;3.60;;;20.60;99.90;;;;;;7181234;19;2004722;-75
2023/08/15 01:36:56;;;;;;;12.23;3.70;;;20.60;99.90;;;;;;7284551;19;20184;-75
2023/08/15 01:39:27;;;;;;;13.83;3.57;;;20.60;99.90;;;;;;7179474;19;2004484;-75
2023/08/15 01:41:56;;;;;;;17.50;4.63;;;20.60;99.90;;;;;;7280910;19;20207;-75
2023/08/15 01:44:23;;;;;;;21.43;4.10;;;20.50;99.90;;;;;;7281839;19;20650;-75
2023/08/15 01:46:49;;;;;;;13.57;3.73;;;20.50;99.90;;;;;;7282653;19;20718;-74
2023/08/15 01:49:16;;;;;;;13.03;3.63;;;20.40;99.90;;;;;;7294071;19;20191;-75
2023/08/15 01:51:42;;;;;;;16.20;3.83;;;20.30;99.90;;;;;;7303366;19;20535;-75
2023/08/15 01:54:08;;;;;;;11.73;3.40;;;20.30;99.90;;;;;;7282292;19;20206;-75
2023/08/15 01:56:34;;;;;;;11.67;3.47;;;20.30;99.90;;;;;;7281213;19;20226;-75
2023/08/15 01:59:00;;;;;;;13.77;3.60;;;20.30;99.90;;;;;;7281646;19;20192;-75
2023/08/15 02:01:25;;;;;;;16.13;3.67;;;20.10;99.90;;;;;;7280917;19;20636;-75
2023/08/15 02:03:54;;;;;;;18.67;3.80;;;19.80;99.90;;;;;;7282063;19;20195;-74
2023/08/15 02:06:20;;;;;;;18.10;4.67;;;19.60;99.90;;;;;;7283159;19;20196;-75
2023/08/15 02:08:45;;;;;;;11.50;3.43;;;19.40;99.90;;;;;;7300681;19;20206;-74
2023/08/15 02:11:11;;;;;;;14.13;4.47;;;19.40;99.90;;;;;;7293238;19;20327;-75
2023/08/15 02:13:38;;;;;;;16.00;3.97;;;19.40;99.90;;;;;;7281838;19;20198;-75
2023/08/15 02:16:04;;;;;;;20.37;4.10;;;19.50;99.90;;;;;;7281867;19;20530;-75
2023/08/15 02:18:30;;;;;;;15.50;3.70;;;19.50;99.90;;;;;;7281292;19;20216;-75
2023/08/15 02:20:56;;;;;;;12.07;3.50;;;19.50;99.90;;;;;;7282034;19;20650;-74
2023/08/15 02:23:21;;;;;;;12.63;3.60;;;19.40;99.90;;;;;;7281127;19;20202;-74
2023/08/15 02:25:48;;;;;;;13.87;3.77;;;19.40;99.90;;;;;;7283064;19;20193;-75
2023/08/15 02:28:14;;;;;;;14.83;3.57;;;19.30;99.90;;;;;;7302230;19;20198;-75
2023/08/15 02:30:40;;;;;;;13.73;3.47;;;19.30;99.90;;;;;;7283904;19;20234;-75
2023/08/15 02:33:07;;;;;;;12.57;3.17;;;19.30;99.90;;;;;;7282400;19;20554;-75
2023/08/15 02:35:33;;;;;;;14.73;3.60;;;19.30;99.90;;;;;;7283102;19;20765;-74
2023/08/15 02:37:59;;;;;;;14.17;3.23;;;19.30;99.90;;;;;;7282228;19;20194;-75
2023/08/15 02:40:28;;;;;;;15.03;3.53;;;19.30;99.90;;;;;;7282909;19;20260;-75
2023/08/15 02:42:54;;;;;;;14.13;3.70;;;19.30;99.90;;;;;;7283076;19;20182;-75
2023/08/15 02:45:20;;;;;;;16.53;3.47;;;19.40;99.90;;;;;;7282163;19;20231;-74
2023/08/15 02:47:46;;;;;;;14.57;3.43;;;19.30;99.90;;;;;;7299079;19;20576;-74
2023/08/15 02:50:12;;;;;;;11.83;3.53;;;19.40;99.90;;;;;;7302958;19;20187;-75
2023/08/15 02:52:38;;;;;;;11.53;3.73;;;19.40;99.90;;;;;;7281030;19;20296;-75
2023/08/15 02:55:05;;;;;;;12.43;3.43;;;19.40;99.90;;;;;;7277422;19;20209;-75
2023/08/15 02:57:30;;;;;;;10.30;3.10;;;19.10;99.90;;;;;;7278934;19;20197;-75
2023/08/15 02:59:56;;;;;;;14.40;3.47;;;19.00;99.90;;;;;;7281458;19;20650;-74
2023/08/15 03:02:22;;;;;;;13.17;3.60;;;18.90;99.90;;;;;;7280624;19;20195;-75
2023/08/15 03:04:49;;;;;;;11.87;3.93;;;18.80;99.90;;;;;;7281001;19;20189;-74
2023/08/15 03:07:15;;;;;;;14.03;3.47;;;18.70;99.90;;;;;;7301999;19;20192;-75
2023/08/15 03:09:41;;;;;;;14.23;3.80;;;18.60;99.90;;;;;;7280522;19;20692;-75
2023/08/15 03:12:07;;;;;;;14.50;3.70;;;18.70;99.90;;;;;;7278053;19;20555;-75
2023/08/15 03:14:33;;;;;;;16.57;3.90;;;18.70;99.90;;;;;;7279827;19;20196;-75
2023/08/15 03:17:01;;;;;;;14.97;3.53;;;18.60;99.90;;;;;;7279733;19;20650;-74
2023/08/15 03:19:26;;;;;;;15.17;3.73;;;18.50;99.90;;;;;;7279638;19;20185;-74
2023/08/15 03:21:52;;;;;;;13.10;3.73;;;18.60;99.90;;;;;;7279971;19;20661;-74
2023/08/15 03:24:21;;;;;;;12.87;3.30;;;18.60;99.90;;;;;;7280474;19;20791;-74
2023/08/15 03:26:47;;;;;;;12.93;3.70;;;18.70;99.90;;;;;;7288725;19;20641;-75
2023/08/15 03:29:13;;;;;;;12.03;3.53;;;18.60;99.90;;;;;;7301669;19;20181;-75
2023/08/15 03:31:39;;;;;;;12.57;3.40;;;18.60;99.90;;;;;;7281270;19;20188;-75
2023/08/15 03:34:05;;;;;;;13.67;3.73;;;18.60;99.90;;;;;;7279957;19;20192;-75
2023/08/15 03:36:31;;;;;;;14.87;3.83;;;18.50;99.90;;;;;;7279404;19;20185;-74
2023/08/15 03:38:57;;;;;;;14.10;3.83;;;18.50;99.90;;;;;;7278864;19;20633;-74
2023/08/15 03:41:22;;;;;;;16.93;3.97;;;18.60;99.90;;;;;;7279789;19;20181;-74
2023/08/15 03:43:48;;;;;;;12.10;3.67;;;18.60;99.90;;;;;;7280147;19;20559;-74
2023/08/15 03:46:14;;;;;;;13.13;3.87;;;18.70;99.90;;;;;;7300990;19;20192;-75
2023/08/15 03:48:41;;;;;;;12.03;3.60;;;18.70;99.90;;;;;;7279332;19;20536;-75
2023/08/15 03:51:07;;;;;;;13.33;3.50;;;18.70;99.90;;;;;;7278757;19;20798;-76
2023/08/15 03:53:33;;;;;;;17.33;4.10;;;18.70;99.90;;;;;;7280459;19;20181;-75
2023/08/15 03:56:00;;;;;;;15.27;3.50;;;18.70;99.90;;;;;;7278255;19;20185;-75
2023/08/15 03:58:26;;;;;;;13.80;3.67;;;18.70;99.90;;;;;;7278544;19;20186;-75
2023/08/15 04:00:52;;;;;;;11.93;3.47;;;18.70;99.90;;;;;;7278436;19;20178;-75
2023/08/15 04:03:18;;;;;;;12.10;3.50;;;18.60;99.90;;;;;;7281859;19;20367;-75
2023/08/15 04:05:48;;;;;;;15.47;3.53;;;18.70;99.90;;;;;;7298607;19;20587;-75
2023/08/15 04:08:15;;;;;;;12.20;3.27;;;18.70;99.90;;;;;;7279209;19;20190;-74
2023/08/15 04:10:44;;;;;;;13.50;3.70;;;18.80;99.90;;;;;;7278910;19;20188;-75
2023/08/15 04:13:10;;;;;;;11.80;3.43;;;18.90;99.90;;;;;;7279163;19;20217;-75
2023/08/15 04:15:38;;;;;;;13.03;3.23;;;18.90;99.90;;;;;;7279246;19;20205;-75
2023/08/15 04:18:09;;;;;;;13.47;3.77;;;18.90;99.90;;;;;;7278853;19;20186;-75
2023/08/15 04:20:39;;;;;;;10.57;3.60;;;19.00;99.90;;;;;;7279066;19;20197;-75
2023/08/15 04:23:06;;;;;;;13.60;3.80;;;18.90;99.90;;;;;;7279002;19;20193;-75
2023/08/15 04:25:36;;;;;;;12.27;3.50;;;19.00;99.90;;;;;;7278894;19;20203;-75
2023/08/15 04:28:02;;;;;;;13.40;3.33;;;19.00;99.90;;;;;;7277704;19;20260;-75
2023/08/15 04:30:31;;;;;;;13.50;3.80;;;18.90;99.90;;;;;;7277561;19;20216;-75
2023/08/15 04:33:01;;;;;;;14.77;3.90;;;18.90;99.90;;;;;;7277542;19;20261;-75
2023/08/15 04:35:28;;;;;;;14.37;3.73;;;18.80;99.90;;;;;;7276605;19;20185;-76
2023/08/15 04:37:54;;;;;;;13.80;3.80;;;18.70;99.90;;;;;;7277448;19;20191;-75
2023/08/15 04:40:43;;;;;;;11.43;3.60;;;18.70;99.90;;;;;;7277605;19;20193;-75
2023/08/15 04:43:10;;;;;;;14.37;3.97;;;18.70;99.90;;;;;;7276169;19;20224;-75
2023/08/15 04:45:43;;;;;;;12.80;3.50;;;18.60;99.90;;;;;;7278206;19;20205;-74
2023/08/15 04:48:11;;;;;;;12.63;3.47;;;18.50;99.90;;;;;;7277417;19;20192;-75
2023/08/15 04:50:37;;;;;;;11.43;3.67;;;18.30;99.90;;;;;;7275279;19;20645;-75
2023/08/15 04:53:03;;;;;;;12.73;4.00;;;18.20;99.90;;;;;;7278213;19;20222;-75
2023/08/15 04:55:31;;;;;;;12.33;3.67;;;18.10;99.90;;;;;;7277019;19;20189;-75
2023/08/15 04:57:57;;;;;;;13.43;3.63;;;18.20;99.90;;;;;;7276301;19;20197;-75
2023/08/15 05:00:22;;;;;;;16.40;4.00;;;18.30;99.90;;;;;;7277275;19;20189;-75
2023/08/15 05:02:48;;;;;;;15.67;3.97;;;18.30;99.90;;;;;;7275954;19;20188;-75
2023/08/15 05:05:15;;;;;;;11.87;3.47;;;18.50;99.90;;;;;;7298927;19;20515;-75
2023/08/15 05:07:41;;;;;;;11.97;3.53;;;19.00;99.90;;;;;;7274631;19;20195;-76
2023/08/15 05:10:08;;;;;;;13.57;3.33;;;19.70;99.90;;;;;;7276748;19;20240;-75
2023/08/15 05:12:37;;;;;;;11.47;2.83;;;20.30;99.90;;;;;;7275592;19;20274;-75
2023/08/15 05:15:07;;;;;;;10.97;2.87;;;21.20;99.90;;;;;;7275956;19;20273;-76
2023/08/15 05:17:34;;;;;;;13.27;3.00;;;22.10;99.90;;;;;;7277687;19;20283;-76
2023/08/15 05:20:00;;;;;;;12.70;3.10;;;22.90;99.90;;;;;;7283195;19;20235;-75
2023/08/15 05:22:26;;;;;;;9.30;2.67;;;22.90;99.90;;;;;;7283053;19;20655;-75
2023/08/15 05:24:52;;;;;;;11.43;2.63;;;22.40;99.90;;;;;;7282458;19;20199;-75
2023/08/15 05:27:19;;;;;;;11.80;2.80;;;22.20;99.90;;;;;;7283225;19;20547;-75
2023/08/15 05:29:45;;;;;;;11.17;2.90;;;22.80;99.90;;;;;;7305130;19;20189;-75
2023/08/15 05:32:10;;;;;;;9.67;2.43;;;23.50;99.90;;;;;;7284587;19;20617;-75
2023/08/15 05:34:36;;;;;;;14.00;2.60;;;24.40;99.90;;;;;;7283232;19;20202;-75
2023/08/15 05:37:02;;;;;;;13.03;2.63;;;24.90;99.90;;;;;;7281327;19;20196;-75
2023/08/15 05:39:28;;;;;;;13.67;2.83;;;25.60;99.90;;;;;;7281830;19;20203;-75
2023/08/15 05:41:54;;;;;;;8.30;2.40;;;26.40;99.90;;;;;;7282422;19;20204;-75
2023/08/15 05:44:19;;;;;;;10.50;2.40;;;26.90;99.90;;;;;;7280459;19;20277;-74
2023/08/15 05:46:45;;;;;;;9.43;2.35;;;26.80;99.90;;;;;;7303844;19;20201;-75
2023/08/15 05:49:11;;;;;;;11.07;2.47;;;26.40;99.90;;;;;;7281312;19;20212;-74
2023/08/15 05:51:36;;;;;;;9.43;2.70;;;26.00;99.90;;;;;;7282085;19;20205;-75
2023/08/15 05:54:02;;;;;;;11.47;2.63;;;25.50;99.90;;;;;;7282214;19;20220;-75
2023/08/15 05:56:28;;;;;;;10.30;2.33;;;25.80;99.90;;;;;;7282049;19;20755;-75
2023/08/15 05:58:54;;;;;;;9.60;2.47;;;26.20;99.90;;;;;;7280811;19;20209;-75
2023/08/15 06:01:21;;;;;;;12.70;2.30;;;26.40;99.90;;;;;;7280161;19;20204;-74
2023/08/15 06:03:47;;;;;;;7.00;1.92;;;26.60;99.90;;;;;;7297165;19;20188;-75
2023/08/15 06:06:13;;;;;;;10.30;2.47;;;27.00;99.90;;;;;;7295621;19;20197;-76
2023/08/15 06:08:39;;;;;;;9.32;2.40;;;27.30;99.90;;;;;;7280268;19;20238;-76
2023/08/15 06:11:05;;;;;;;8.27;2.15;;;27.20;99.90;;;;;;7280847;19;20569;-74
2023/08/15 06:13:31;;;;;;;9.18;2.33;;;27.40;99.90;;;;;;7281737;19;20192;-74
2023/08/15 06:15:57;;;;;;;9.82;2.08;;;27.50;99.90;;;;;;7279723;19;20188;-74
2023/08/15 06:18:23;;;;;;;12.93;2.30;;;28.00;99.90;;;;;;7280398;19;20843;-75
2023/08/15 06:20:49;;;;;;;12.80;2.45;;;28.60;99.90;;;;;;7282786;19;20188;-74
2023/08/15 06:23:14;;;;;;;9.80;2.17;;;29.00;99.90;;;;;;7303016;19;20181;-75
2023/08/15 06:25:40;;;;;;;10.27;2.30;;;29.40;99.90;;;;;;7282030;19;20185;-75
2023/08/15 06:28:08;;;;;;;8.80;1.95;;;29.40;99.90;;;;;;7279940;19;20235;-76
2023/08/15 06:30:34;;;;;;;9.35;2.22;;;29.30;99.90;;;;;;7280428;19;20185;-75
2023/08/15 06:32:59;;;;;;;9.55;1.90;;;29.10;99.90;;;;;;7281563;19;20193;-75
2023/08/15 06:35:28;;;;;;;9.32;2.40;;;28.80;99.90;;;;;;7281408;19;20244;-74
2023/08/15 06:37:54;;;;;;;8.80;1.92;;;28.40;99.90;;;;;;7280394;19;20212;-74
2023/08/15 06:40:20;;;;;;;9.57;2.10;;;27.60;99.90;;;;;;7280728;19;20185;-74
2023/08/15 06:42:46;;;;;;;10.68;2.20;;;26.80;99.90;;;;;;7302224;19;20656;-75
2023/08/15 06:45:12;;;;;;;17.23;2.38;;;27.00;99.90;;;;;;7280955;19;20189;-75
2023/08/15 06:47:38;;;;;;;9.05;1.92;;;27.30;99.90;;;;;;7278780;19;21035;-74
2023/08/15 06:50:06;;;;;;;7.43;2.22;;;27.80;99.90;;;;;;7279662;19;20185;-75
2023/08/15 06:52:31;;;;;;;8.13;2.08;;;28.10;99.90;;;;;;7279436;19;20984;-75
2023/08/15 06:54:57;;;;;;;10.02;2.22;;;28.50;99.90;;;;;;7281032;19;20189;-75
2023/08/15 06:57:23;;;;;;;9.57;2.00;;;29.10;99.90;;;;;;7281267;19;20518;-75
2023/08/15 06:59:49;;;;;;;10.90;2.00;;;30.00;99.90;;;;;;7278581;19;20198;-75
2023/08/15 07:02:14;;;;;;;8.50;2.03;;;29.90;99.90;;;;;;7301672;19;20187;-75
2023/08/15 07:04:40;;;;;;;9.27;2.05;;;30.00;99.90;;;;;;7282172;19;20702;-76
2023/08/15 07:07:09;;;;;;;12.68;2.50;;;30.10;99.90;;;;;;7279078;19;20204;-75
2023/08/15 07:09:35;;;;;;;12.25;3.10;;;30.60;99.90;;;;;;7280432;19;20185;-75
2023/08/15 07:12:05;;;;;;;9.38;2.38;;;31.00;99.90;;;;;;7279816;19;20188;-75
2023/08/15 07:14:33;;;;;;;11.40;2.40;;;33.00;99.90;;;;;;7277977;19;20217;-75
2023/08/15 07:17:00;;;;;;;11.45;2.80;;;34.30;99.90;;;;;;7279633;19;20908;-75
2023/08/15 07:19:26;;;;;;;13.15;2.97;;;33.40;99.90;;;;;;7278765;19;20197;-76
2023/08/15 07:21:51;;;;;;;10.57;2.60;;;32.90;99.90;;;;;;7279194;19;20197;-75
2023/08/15 07:24:17;;;;;;;10.90;2.30;;;32.50;99.90;;;;;;7294578;19;20565;-73
2023/08/15 07:26:44;;;;;;;9.98;2.28;;;32.70;99.90;;;;;;7296101;19;20185;-75
2023/08/15 07:29:12;;;;;;;11.50;2.40;;;32.60;99.90;;;;;;7279534;19;20236;-75
2023/08/15 07:31:37;;;;;;;10.68;2.40;;;31.40;99.90;;;;;;7279276;19;20205;-76
2023/08/15 07:34:03;;;;;;;9.68;2.67;;;30.60;99.90;;;;;;7278033;19;20214;-75
2023/08/15 07:36:29;;;;;;;11.20;2.80;;;29.90;99.90;;;;;;7277772;19;20946;-75
2023/08/15 07:38:56;;;;;;;12.38;2.72;;;29.90;99.90;;;;;;7279066;19;20189;-76
2023/08/15 07:41:22;;;;;;;8.95;2.28;;;30.10;99.90;;;;;;7275533;19;20188;-75
2023/08/15 07:43:48;;;;;;;9.60;2.20;;;30.70;99.90;;;;;;7284356;19;20201;-75
2023/08/15 07:46:14;;;;;;;8.85;2.30;;;33.00;99.90;;;;;;7300052;19;20239;-76
2023/08/15 07:48:40;;;;;;;7.30;2.10;;;33.40;99.90;;;;;;7277096;19;20668;-75
2023/08/15 07:51:05;;;;;;;8.15;1.75;;;33.00;99.90;;;;;;7278097;19;20192;-75
2023/08/15 07:53:31;;;;;;;11.18;2.80;;;32.70;99.90;;;;;;7277447;19;20664;-75
2023/08/15 07:55:57;;;;;;;9.68;2.42;;;33.20;99.90;;;;;;7277068;19;20205;-75
2023/08/15 07:58:23;;;;;;;11.25;2.63;;;33.90;99.90;;;;;;7278747;19;20257;-76
2023/08/15 08:00:49;;;;;;;9.00;2.55;;;34.80;99.90;;;;;;7277770;19;20266;-76
2023/08/15 08:03:14;;;;;;;7.57;2.22;;;36.50;99.90;;;;;;7298453;19;20205;-75
2023/08/15 08:05:40;;;;;;;9.82;2.50;;;37.00;97.00;;;;;;7276210;19;20192;-76
2023/08/15 08:08:06;;;;;;;12.77;2.50;;;36.90;95.60;;;;;;7276594;19;20184;-76
2023/08/15 08:10:32;;;;;;;10.50;2.92;;;35.70;95.30;;;;;;7275672;19;20256;-75
2023/08/15 08:13:01;;;;;;;8.95;2.47;;;36.10;96.50;;;;;;7276889;19;20185;-74
2023/08/15 08:15:29;;;;;;;9.95;2.83;;;35.50;95.80;;;;;;7276765;19;20181;-75
2023/08/15 08:17:55;;;;;;;8.40;2.17;;;35.80;95.10;;;;;;7276960;19;20213;-74
2023/08/15 08:20:21;;;;;;;8.52;2.13;;;36.70;95.20;;;;;;7276884;19;20513;-75
2023/08/15 08:22:47;;;;;;;8.25;2.25;;;38.20;93.80;;;;;;7299358;19;20194;-75
2023/08/15 08:25:19;;;;;;;11.00;2.72;;;39.10;92.20;;;;;;7277861;19;20189;-74
2023/08/15 08:27:45;;;;;;;12.45;2.80;;;38.50;89.70;;;;;;7279077;19;20216;-74
2023/08/15 08:30:22;;;;;;;10.77;2.30;;;38.10;90.00;;;;;;7275814;19;20172;-76
2023/08/15 08:32:48;;;;;;;9.02;2.40;;;37.90;90.20;;;;;;7265687;19;20185;-75
2023/08/15 08:35:17;;;;;;;8.38;2.35;;;37.80;90.00;;;;;;7298523;19;20188;-75
2023/08/15 08:37:44;;;;;;;9.35;2.45;;;38.80;88.40;;;;;;7276512;19;20181;-75
2023/08/15 08:40:12;;;;;;;13.55;2.40;;;39.30;86.60;;;;;;7275126;19;20189;-75
2023/08/15 08:42:40;;;;;;;6.07;2.00;;;39.80;83.80;;;;;;7275000;19;20206;-75
2023/08/15 08:45:09;;;;;;;7.05;2.00;;;40.50;81.40;;;;;;7275189;19;20184;-76
2023/08/15 08:47:41;;;;;;;7.85;2.08;;;40.50;76.10;;;;;;7274319;19;20532;-75
2023/08/15 08:50:10;;;;;;;12.68;2.03;;;40.70;76.40;;;;;;7273947;19;20195;-76
2023/08/15 08:52:41;;;;;;;7.10;2.17;;;41.10;74.80;;;;;;7274954;19;20211;-75
2023/08/15 08:55:11;;;;;;;7.80;2.00;;;41.00;75.70;;;;;;7282836;19;22327;-74
2023/08/15 08:57:39;;;;;;;7.30;2.10;;;40.60;71.40;;;;;;7282722;19;20189;-76
2023/08/15 09:00:11;;;;;;;7.95;2.03;;;40.80;72.30;;;;;;7281986;19;20193;-75
2023/08/15 09:02:38;;;;;;;6.38;1.92;;;41.20;70.70;;;;;;7279066;19;20210;-75
2023/08/15 09:05:07;;;;;;;7.60;2.20;;;41.80;69.90;;;;;;7280831;19;20195;-75
2023/08/15 09:07:36;;;;;;;9.95;1.90;;;41.80;67.60;;;;;;7280661;19;20193;-76
2023/08/15 09:10:04;;;;;;;6.97;1.55;;;41.20;65.50;;;;;;7280856;19;20221;-76
2023/08/15 09:12:39;;;;;;;6.40;1.75;;;41.10;69.20;;;;;;7282649;19;20201;-76
2023/08/15 09:15:10;;;;;;;6.25;2.05;;;41.80;65.70;;;;;;7281177;19;20724;-76
2023/08/15 09:17:39;;;;;;;4.95;1.55;;;42.40;67.30;;;;;;7283008;19;20189;-75
2023/08/15 09:20:11;;;;;;;7.63;1.65;;;42.80;63.40;;;;;;7280610;19;20280;-74
2023/08/15 09:22:44;;;;;;;5.53;1.80;;;42.80;64.00;;;;;;7281905;19;20189;-76
2023/08/15 09:25:11;;;;;;;9.57;2.03;;;43.40;60.80;;;;;;7282185;19;20197;-76
2023/08/15 09:27:38;;;;;;;5.60;1.73;;;42.10;59.40;;;;;;7281602;19;20233;-75
2023/08/15 09:30:11;;;;;;;6.65;1.70;;;41.10;59.40;;;;;;7281084;19;20201;-76
2023/08/15 09:32:41;;;;;;;8.13;1.83;;;40.40;61.70;;;;;;7279835;19;20779;-75
2023/08/15 09:35:12;;;;;;;6.65;1.75;;;40.80;63.30;;;;;;7280975;19;20298;-75
2023/08/15 09:37:45;;;;;;;10.70;2.08;;;41.40;60.80;;;;;;7280990;19;20205;-75
2023/08/15 09:40:31;;;;;;;6.55;1.65;;;40.90;60.40;;;;;;7277636;19;20596;-75
2023/08/15 09:42:57;;;;;;;7.65;1.80;;;41.70;62.10;;;;;;7176459;19;2004485;-76
2023/08/15 09:45:24;;;;;;;10.73;2.10;;;42.10;59.50;;;;;;7278130;19;20661;-75
2023/08/15 09:47:50;;;;;;;11.23;1.90;;;42.50;59.30;;;;;;7280690;19;20204;-75
2023/08/15 09:50:16;;;;;;;7.78;1.85;;;42.10;58.50;;;;;;7301425;19;20195;-76
2023/08/15 09:52:46;;;;;;;7.45;1.77;;;41.70;58.10;;;;;;7280077;19;20232;-76
2023/08/15 09:55:15;;;;;;;9.15;1.85;;;42.00;58.80;;;;;;7281938;19;20193;-76
2023/08/15 09:57:44;;;;;;;8.35;2.70;;;40.80;58.70;;;;;;7280103;19;20189;-76
2023/08/15 10:00:12;;;;;;;6.88;2.00;;;41.20;59.30;;;;;;7281306;19;20197;-76
2023/08/15 10:03:05;;;;;;;7.30;1.80;;;40.50;59.40;;;;;;7278290;19;20192;-76
2023/08/15 10:05:33;;;;;;;8.38;1.90;;;40.70;58.90;;;;;;7178017;19;2004771;-75
2023/08/15 10:07:59;;;;;;;9.75;2.08;;;41.50;58.80;;;;;;7281642;19;20360;-75
2023/08/15 10:10:27;;;;;;;5.03;1.58;;;42.40;57.70;;;;;;7279604;19;20200;-75
2023/08/15 10:12:54;;;;;;;7.05;1.85;;;43.00;58.00;;;;;;7279283;19;20612;-74
2023/08/15 10:15:21;;;;;;;9.07;1.92;;;43.30;56.30;;;;;;7280105;19;20189;-74
2023/08/15 10:17:48;;;;;;;7.38;2.15;;;42.80;55.40;;;;;;7301680;19;20535;-75
2023/08/15 10:20:18;;;;;;;6.53;1.90;;;41.80;57.20;;;;;;7280341;19;21237;-74
2023/08/15 10:22:44;;;;;;;6.60;1.75;;;42.50;58.00;;;;;;7280366;19;20192;-74
2023/08/15 10:25:22;;;;;;;5.55;1.50;;;43.70;56.50;;;;;;7279354;19;20178;-75
2023/08/15 10:27:50;;;;;;;7.88;1.90;;;43.60;56.30;;;;;;7272137;19;20555;-75
2023/08/15 10:30:33;;;;;;;5.70;1.70;;;43.50;55.00;;;;;;7302425;19;20188;-75
2023/08/15 10:33:11;;;;;;;10.07;1.65;;;41.40;57.20;;;;;;7176477;19;2004662;-75
2023/08/15 10:35:36;;;;;;;9.18;1.90;;;41.60;56.30;;;;;;7279254;19;20192;-76
2023/08/15 10:38:13;;;;;;;8.75;1.75;;;41.60;58.30;;;;;;7280187;19;20188;-76
2023/08/15 10:40:41;;;;;;;7.25;1.75;;;41.30;56.40;;;;;;7280084;19;20185;-75
2023/08/15 10:43:10;;;;;;;8.15;1.80;;;40.20;59.80;;;;;;7279670;19;20193;-75
2023/08/15 10:45:52;;;;;;;8.68;1.83;;;39.50;58.60;;;;;;7278550;19;20193;-74
2023/08/15 10:48:43;;;;;;;7.28;1.73;;;38.80;59.50;;;;;;7268054;19;20185;-74
2023/08/15 10:51:39;;;;;;;7.00;2.10;;;38.90;59.90;;;;;;7278593;19;20190;-75
2023/08/15 10:54:07;;;;;;;9.48;2.05;;;39.40;59.30;;;;;;7175861;19;2004653;-75
2023/08/15 10:56:37;;;;;;;7.13;1.85;;;38.60;59.60;;;;;;7279977;19;20208;-75
2023/08/15 10:59:14;;;;;;;6.57;1.83;;;39.20;61.90;;;;;;7278587;19;20196;-75
2023/08/15 11:01:42;;;;;;;9.23;1.70;;;39.70;60.10;;;;;;7278673;19;20825;-75
2023/08/15 11:04:12;;;;;;;6.80;1.63;;;39.60;60.00;;;;;;7277422;19;20302;-75
2023/08/15 11:06:47;;;;;;;9.30;1.77;;;38.90;59.80;;;;;;7278763;19;20286;-75
2023/08/15 11:09:16;;;;;;;8.43;1.73;;;38.20;59.90;;;;;;7278560;19;20693;-75
2023/08/15 11:11:44;;;;;;;5.90;2.20;;;37.50;61.10;;;;;;7279288;19;20707;-76
2023/08/15 11:14:18;;;;;;;12.48;5.18;;;36.90;63.90;;;;;;7277691;19;20204;-75
2023/08/15 11:16:48;;;;;;;8.05;2.40;;;36.50;65.40;;;;;;7276398;19;20719;-74
2023/08/15 11:19:15;;;;;;;8.38;2.28;;;36.50;65.90;;;;;;7278020;19;20217;-75
2023/08/15 11:21:42;;;;;;;6.93;2.05;;;36.20;63.70;;;;;;7277042;19;20652;-75
2023/08/15 11:24:10;;;;;;;8.07;1.88;;;36.30;66.10;;;;;;7277063;19;20202;-75
2023/08/15 11:26:36;;;;;;;9.30;2.00;;;37.00;68.20;;;;;;7278357;19;20216;-75
2023/08/15 11:29:02;;;;;;;8.85;2.03;;;37.90;64.40;;;;;;7277135;19;20878;-75
2023/08/15 11:31:30;;;;;;;7.55;1.88;;;38.20;62.70;;;;;;7277607;19;20193;-75
2023/08/15 11:33:59;;;;;;;6.90;1.75;;;38.40;63.40;;;;;;7278595;19;20195;-75
2023/08/15 11:36:24;;;;;;;5.20;1.60;;;38.60;63.00;;;;;;7277803;19;20188;-75
2023/08/15 11:38:51;;;;;;;7.22;1.70;;;38.70;61.20;;;;;;7277642;19;20205;-75
2023/08/15 11:41:18;;;;;;;8.45;1.75;;;38.30;61.40;;;;;;7299077;19;20189;-75
2023/08/15 11:43:44;;;;;;;6.38;1.75;;;39.30;64.20;;;;;;7278109;19;20189;-75
2023/08/15 11:46:10;;;;;;;9.57;1.75;;;40.40;62.70;;;;;;7274027;19;20188;-74
2023/08/15 11:48:36;;;;;;;6.68;1.95;;;40.00;61.10;;;;;;7277770;19;20237;-75
2023/08/15 11:51:03;;;;;;;6.70;1.75;;;39.50;60.50;;;;;;7275888;19;20192;-76
2023/08/15 11:53:29;;;;;;;5.90;1.60;;;39.70;62.10;;;;;;7277355;19;20177;-75
2023/08/15 11:55:55;;;;;;;5.68;1.40;;;40.20;59.50;;;;;;7276187;19;20191;-76
2023/08/15 11:58:28;;;;;;;7.93;1.80;;;39.70;60.30;;;;;;7272391;19;20181;-76
2023/08/15 12:00:59;;;;;;;6.55;2.00;;;39.60;60.90;;;;;;7275761;19;20200;-75
2023/08/15 12:03:26;;;;;;;7.07;1.65;;;40.00;62.00;;;;;;7277219;19;20189;-76
2023/08/15 12:05:56;;;;;;;6.63;2.03;;;40.60;60.40;;;;;;7276244;19;20177;-75
2023/08/15 12:08:27;;;;;;;5.78;1.70;;;41.00;60.70;;;;;;7278282;19;20185;-77
2023/08/15 12:10:58;;;;;;;8.43;2.17;;;41.20;58.40;;;;;;7276983;19;20728;-75
2023/08/15 12:13:31;;;;;;;7.07;1.80;;;40.50;59.70;;;;;;7277437;19;20193;-75
2023/08/15 12:15:58;;;;;;;6.53;2.15;;;40.50;60.10;;;;;;7275896;19;20931;-76
2023/08/15 12:18:24;;;;;;;6.07;2.40;;;40.20;58.70;;;;;;7274396;19;21023;-75
2023/08/15 12:20:49;;;;;;;6.32;1.90;;;40.00;60.00;;;;;;7278546;19;20185;-75
2023/08/15 12:23:15;;;;;;;6.72;1.70;;;39.50;61.20;;;;;;7296636;19;20198;-75
2023/08/15 12:25:41;;;;;;;8.20;1.90;;;38.20;61.00;;;;;;7276502;19;20181;-76
2023/08/15 12:28:07;;;;;;;6.93;2.05;;;37.40;62.00;;;;;;7281557;19;20289;-76
2023/08/15 12:30:33;;;;;;;7.68;2.72;;;36.80;64.40;;;;;;7283624;19;20194;-75
2023/08/15 12:33:00;;;;;;;8.50;2.78;;;36.30;66.90;;;;;;7282682;19;20703;-76
2023/08/15 12:35:26;;;;;;;10.52;3.00;;;35.90;67.20;;;;;;7282953;19;20289;-76
2023/08/15 12:37:52;;;;;;;8.55;2.00;;;35.70;66.90;;;;;;7283137;19;20662;-76
2023/08/15 12:40:18;;;;;;;8.48;1.75;;;35.10;68.00;;;;;;7304284;19;20188;-75
2023/08/15 12:42:44;;;;;;;7.32;2.17;;;34.70;68.70;;;;;;7294731;19;20181;-76
2023/08/15 12:45:10;;;;;;;8.52;1.90;;;34.40;68.40;;;;;;7282942;19;21887;-76